sensor_id;sensor_type;location;lat;lon;timestamp;P1;durP1;ratioP1;P2;durP2;ratioP2
23171;SDS011;11754;42.664;23.594;2022-09-20T00:00:34;3.55;;;0.50;;
23171;SDS011;11754;42.664;23.594;2022-09-20T00:03:01;1.35;;;0.40;;
23171;SDS011;11754;42.664;23.594;2022-09-20T00:05:26;1.92;;;0.52;;
23171;SDS011;11754;42.664;23.594;2022-09-20T00:07:52;0.77;;;0.43;;
23171;SDS011;11754;42.664;23.594;2022-09-20T00:10:17;1.08;;;0.52;;
23171;SDS011;11754;42.664;23.594;2022-09-20T00:12:43;1.35;;;0.50;;
23171;SDS011;11754;42.664;23.594;2022-09-20T00:15:08;0.75;;;0.50;;
23171;SDS011;11754;42.664;23.594;2022-09-20T00:17:34;1.48;;;0.50;;
23171;SDS011;11754;42.664;23.594;2022-09-20T00:19:59;0.60;;;0.40;;
23171;SDS011;11754;42.664;23.594;2022-09-20T00:22:25;1.65;;;0.63;;
23171;SDS011;11754;42.664;23.594;2022-09-20T00:24:51;1.25;;;0.50;;
23171;SDS011;11754;42.664;23.594;2022-09-20T00:27:17;0.63;;;0.40;;
23171;SDS011;11754;42.664;23.594;2022-09-20T00:29:42;0.80;;;0.50;;
23171;SDS011;11754;42.664;23.594;2022-09-20T00:32:07;1.60;;;0.50;;
23171;SDS011;11754;42.664;23.594;2022-09-20T00:34:33;1.33;;;0.68;;
23171;SDS011;11754;42.664;23.594;2022-09-20T00:37:17;0.90;;;0.52;;
23171;SDS011;11754;42.664;23.594;2022-09-20T00:39:42;0.90;;;0.63;;
23171;SDS011;11754;42.664;23.594;2022-09-20T00:42:11;1.35;;;0.80;;
23171;SDS011;11754;42.664;23.594;2022-09-20T00:47:11;1.30;;;0.60;;
23171;SDS011;11754;42.664;23.594;2022-09-20T00:49:42;1.33;;;0.80;;
23171;SDS011;11754;42.664;23.594;2022-09-20T00:52:11;1.05;;;0.70;;
23171;SDS011;11754;42.664;23.594;2022-09-20T00:54:40;1.73;;;0.63;;
23171;SDS011;11754;42.664;23.594;2022-09-20T00:57:09;1.00;;;0.70;;
23171;SDS011;11754;42.664;23.594;2022-09-20T00:59:39;2.72;;;0.70;;
23171;SDS011;11754;42.664;23.594;2022-09-20T01:02:11;1.33;;;0.80;;
23171;SDS011;11754;42.664;23.594;2022-09-20T01:04:40;1.92;;;0.90;;
23171;SDS011;11754;42.664;23.594;2022-09-20T01:07:08;1.30;;;0.80;;
23171;SDS011;11754;42.664;23.594;2022-09-20T01:09:34;1.90;;;0.88;;
23171;SDS011;11754;42.664;23.594;2022-09-20T01:12:01;1.60;;;0.88;;
23171;SDS011;11754;42.664;23.594;2022-09-20T01:14:30;1.10;;;0.80;;
23171;SDS011;11754;42.664;23.594;2022-09-20T01:16:58;1.25;;;0.70;;
23171;SDS011;11754;42.664;23.594;2022-09-20T01:22:20;3.38;;;0.70;;
23171;SDS011;11754;42.664;23.594;2022-09-20T01:27:38;0.90;;;0.70;;
23171;SDS011;11754;42.664;23.594;2022-09-20T01:30:24;1.23;;;0.60;;
23171;SDS011;11754;42.664;23.594;2022-09-20T01:35:36;5.45;;;0.70;;
23171;SDS011;11754;42.664;23.594;2022-09-20T01:38:26;0.50;;;0.30;;
23171;SDS011;11754;42.664;23.594;2022-09-20T01:41:03;1.40;;;0.60;;
23171;SDS011;11754;42.664;23.594;2022-09-20T01:49:39;0.93;;;0.57;;
23171;SDS011;11754;42.664;23.594;2022-09-20T02:00:22;1.55;;;0.70;;
23171;SDS011;11754;42.664;23.594;2022-09-20T02:03:14;1.00;;;0.80;;
23171;SDS011;11754;42.664;23.594;2022-09-20T02:16:53;1.65;;;1.00;;
23171;SDS011;11754;42.664;23.594;2022-09-20T02:19:31;3.15;;;0.98;;
23171;SDS011;11754;42.664;23.594;2022-09-20T02:24:52;1.80;;;1.20;;
23171;SDS011;11754;42.664;23.594;2022-09-20T02:27:33;1.60;;;1.10;;
23171;SDS011;11754;42.664;23.594;2022-09-20T02:33:17;2.30;;;1.25;;
23171;SDS011;11754;42.664;23.594;2022-09-20T02:41:37;2.20;;;1.63;;
23171;SDS011;11754;42.664;23.594;2022-09-20T02:44:21;2.05;;;1.67;;
23171;SDS011;11754;42.664;23.594;2022-09-20T02:47:09;2.28;;;1.55;;
23171;SDS011;11754;42.664;23.594;2022-09-20T02:49:52;4.93;;;1.70;;
23171;SDS011;11754;42.664;23.594;2022-09-20T02:55:08;4.70;;;2.00;;
23171;SDS011;11754;42.664;23.594;2022-09-20T03:00:31;2.53;;;1.67;;
23171;SDS011;11754;42.664;23.594;2022-09-20T03:16:21;7.43;;;2.20;;
23171;SDS011;11754;42.664;23.594;2022-09-20T03:48:58;3.30;;;2.35;;
23171;SDS011;11754;42.664;23.594;2022-09-20T04:02:42;13.25;;;2.60;;
23171;SDS011;11754;42.664;23.594;2022-09-20T04:05:17;15.82;;;2.97;;
23171;SDS011;11754;42.664;23.594;2022-09-20T04:08:14;12.77;;;2.80;;
23171;SDS011;11754;42.664;23.594;2022-09-20T04:11:02;8.00;;;2.70;;
23171;SDS011;11754;42.664;23.594;2022-09-20T04:14:01;4.63;;;2.95;;
23171;SDS011;11754;42.664;23.594;2022-09-20T04:21:57;10.18;;;2.90;;
23171;SDS011;11754;42.664;23.594;2022-09-20T04:27:15;12.00;;;2.65;;
23171;SDS011;11754;42.664;23.594;2022-09-20T04:29:56;9.43;;;2.80;;
23171;SDS011;11754;42.664;23.594;2022-09-20T04:38:13;4.57;;;2.60;;
23171;SDS011;11754;42.664;23.594;2022-09-20T04:58:25;18.83;;;4.10;;
23171;SDS011;11754;42.664;23.594;2022-09-20T05:09:43;5.47;;;3.08;;
23171;SDS011;11754;42.664;23.594;2022-09-20T05:20:15;7.97;;;3.78;;
23171;SDS011;11754;42.664;23.594;2022-09-20T05:28:11;5.50;;;3.53;;
23171;SDS011;11754;42.664;23.594;2022-09-20T05:30:52;6.10;;;3.60;;
23171;SDS011;11754;42.664;23.594;2022-09-20T05:33:48;8.30;;;3.47;;
23171;SDS011;11754;42.664;23.594;2022-09-20T05:36:30;9.05;;;4.00;;
23171;SDS011;11754;42.664;23.594;2022-09-20T05:47:19;6.10;;;4.10;;
23171;SDS011;11754;42.664;23.594;2022-09-20T05:49:57;9.57;;;4.70;;
23171;SDS011;11754;42.664;23.594;2022-09-20T05:52:40;10.13;;;4.88;;
23171;SDS011;11754;42.664;23.594;2022-09-20T06:06:24;6.83;;;4.20;;
23171;SDS011;11754;42.664;23.594;2022-09-20T06:09:04;7.63;;;4.07;;
23171;SDS011;11754;42.664;23.594;2022-09-20T06:14:46;9.50;;;3.97;;
23171;SDS011;11754;42.664;23.594;2022-09-20T06:19:51;5.47;;;3.80;;
23171;SDS011;11754;42.664;23.594;2022-09-20T06:22:41;4.97;;;3.97;;
23171;SDS011;11754;42.664;23.594;2022-09-20T06:27:36;7.90;;;3.90;;
23171;SDS011;11754;42.664;23.594;2022-09-20T06:30:06;6.18;;;3.40;;
23171;SDS011;11754;42.664;23.594;2022-09-20T06:32:52;4.80;;;3.35;;
23171;SDS011;11754;42.664;23.594;2022-09-20T06:35:18;7.80;;;2.85;;
23171;SDS011;11754;42.664;23.594;2022-09-20T06:37:50;3.88;;;2.83;;
23171;SDS011;11754;42.664;23.594;2022-09-20T06:40:45;10.30;;;5.00;;
23171;SDS011;11754;42.664;23.594;2022-09-20T06:43:34;6.45;;;3.08;;
23171;SDS011;11754;42.664;23.594;2022-09-20T06:46:01;7.93;;;3.15;;
23171;SDS011;11754;42.664;23.594;2022-09-20T06:48:26;6.75;;;3.15;;
23171;SDS011;11754;42.664;23.594;2022-09-20T06:50:56;5.30;;;2.80;;
23171;SDS011;11754;42.664;23.594;2022-09-20T06:53:27;4.80;;;2.70;;
23171;SDS011;11754;42.664;23.594;2022-09-20T06:55:57;5.15;;;2.42;;
23171;SDS011;11754;42.664;23.594;2022-09-20T06:58:23;3.15;;;2.33;;
23171;SDS011;11754;42.664;23.594;2022-09-20T07:00:49;3.97;;;2.80;;
23171;SDS011;11754;42.664;23.594;2022-09-20T07:03:14;5.03;;;2.50;;
23171;SDS011;11754;42.664;23.594;2022-09-20T07:05:40;3.38;;;2.53;;
23171;SDS011;11754;42.664;23.594;2022-09-20T07:08:05;4.30;;;2.50;;
23171;SDS011;11754;42.664;23.594;2022-09-20T07:10:31;7.35;;;2.65;;
23171;SDS011;11754;42.664;23.594;2022-09-20T07:12:58;3.72;;;2.50;;
23171;SDS011;11754;42.664;23.594;2022-09-20T07:15:25;4.90;;;2.33;;
23171;SDS011;11754;42.664;23.594;2022-09-20T07:17:52;2.50;;;1.88;;
23171;SDS011;11754;42.664;23.594;2022-09-20T07:20:17;3.50;;;2.28;;
23171;SDS011;11754;42.664;23.594;2022-09-20T07:22:44;3.03;;;2.28;;
23171;SDS011;11754;42.664;23.594;2022-09-20T07:25:10;4.55;;;2.50;;
23171;SDS011;11754;42.664;23.594;2022-09-20T07:27:35;4.80;;;2.20;;
23171;SDS011;11754;42.664;23.594;2022-09-20T07:30:01;5.97;;;2.40;;
23171;SDS011;11754;42.664;23.594;2022-09-20T07:32:26;3.40;;;2.08;;
23171;SDS011;11754;42.664;23.594;2022-09-20T07:34:52;4.97;;;1.90;;
23171;SDS011;11754;42.664;23.594;2022-09-20T07:37:17;6.00;;;2.20;;
23171;SDS011;11754;42.664;23.594;2022-09-20T07:39:43;3.97;;;2.15;;
23171;SDS011;11754;42.664;23.594;2022-09-20T07:42:10;4.47;;;1.88;;
23171;SDS011;11754;42.664;23.594;2022-09-20T07:44:35;3.72;;;1.50;;
23171;SDS011;11754;42.664;23.594;2022-09-20T07:47:03;4.05;;;1.70;;
23171;SDS011;11754;42.664;23.594;2022-09-20T07:49:28;4.07;;;1.70;;
23171;SDS011;11754;42.664;23.594;2022-09-20T07:51:54;3.35;;;1.23;;
23171;SDS011;11754;42.664;23.594;2022-09-20T07:54:20;3.33;;;1.10;;
23171;SDS011;11754;42.664;23.594;2022-09-20T07:56:45;1.60;;;1.30;;
23171;SDS011;11754;42.664;23.594;2022-09-20T07:59:11;3.17;;;1.35;;
23171;SDS011;11754;42.664;23.594;2022-09-20T08:01:37;2.47;;;1.58;;
23171;SDS011;11754;42.664;23.594;2022-09-20T08:04:04;3.92;;;1.30;;
23171;SDS011;11754;42.664;23.594;2022-09-20T08:06:30;6.80;;;1.13;;
23171;SDS011;11754;42.664;23.594;2022-09-20T08:08:55;2.40;;;1.05;;
23171;SDS011;11754;42.664;23.594;2022-09-20T08:11:21;1.40;;;0.90;;
23171;SDS011;11754;42.664;23.594;2022-09-20T08:16:20;0.68;;;0.57;;
23171;SDS011;11754;42.664;23.594;2022-09-20T08:18:46;2.90;;;0.88;;
23171;SDS011;11754;42.664;23.594;2022-09-20T08:21:16;8.55;;;1.00;;
23171;SDS011;11754;42.664;23.594;2022-09-20T08:23:43;2.55;;;0.60;;
23171;SDS011;11754;42.664;23.594;2022-09-20T08:26:11;2.28;;;0.88;;
23171;SDS011;11754;42.664;23.594;2022-09-20T08:28:38;2.50;;;0.60;;
23171;SDS011;11754;42.664;23.594;2022-09-20T08:31:47;2.13;;;0.70;;
23171;SDS011;11754;42.664;23.594;2022-09-20T08:33:59;4.03;;;0.80;;
23171;SDS011;11754;42.664;23.594;2022-09-20T08:36:28;1.42;;;0.50;;
23171;SDS011;11754;42.664;23.594;2022-09-20T08:38:54;2.20;;;0.70;;
23171;SDS011;11754;42.664;23.594;2022-09-20T08:41:30;1.80;;;0.70;;
23171;SDS011;11754;42.664;23.594;2022-09-20T08:43:59;2.28;;;0.60;;
23171;SDS011;11754;42.664;23.594;2022-09-20T08:46:38;3.20;;;0.70;;
23171;SDS011;11754;42.664;23.594;2022-09-20T08:49:05;1.13;;;0.50;;
23171;SDS011;11754;42.664;23.594;2022-09-20T08:51:34;1.00;;;0.60;;
23171;SDS011;11754;42.664;23.594;2022-09-20T08:54:02;2.78;;;0.50;;
23171;SDS011;11754;42.664;23.594;2022-09-20T08:56:33;1.08;;;0.50;;
23171;SDS011;11754;42.664;23.594;2022-09-20T08:59:03;4.32;;;0.57;;
23171;SDS011;11754;42.664;23.594;2022-09-20T09:01:29;1.00;;;0.50;;
23171;SDS011;11754;42.664;23.594;2022-09-20T09:03:58;1.40;;;0.68;;
23171;SDS011;11754;42.664;23.594;2022-09-20T09:06:34;3.08;;;0.57;;
23171;SDS011;11754;42.664;23.594;2022-09-20T09:09:00;1.95;;;0.40;;
23171;SDS011;11754;42.664;23.594;2022-09-20T09:11:25;1.17;;;0.50;;
23171;SDS011;11754;42.664;23.594;2022-09-20T09:14:00;2.03;;;0.40;;
23171;SDS011;11754;42.664;23.594;2022-09-20T09:16:29;1.98;;;0.50;;
23171;SDS011;11754;42.664;23.594;2022-09-20T09:18:56;0.80;;;0.50;;
23171;SDS011;11754;42.664;23.594;2022-09-20T09:21:26;0.98;;;0.40;;
23171;SDS011;11754;42.664;23.594;2022-09-20T09:26:26;0.98;;;0.30;;
23171;SDS011;11754;42.664;23.594;2022-09-20T09:29:14;1.52;;;0.30;;
23171;SDS011;11754;42.664;23.594;2022-09-20T09:31:41;0.55;;;0.30;;
23171;SDS011;11754;42.664;23.594;2022-09-20T09:36:53;5.03;;;0.93;;
23171;SDS011;11754;42.664;23.594;2022-09-20T09:42:18;1.05;;;0.32;;
23171;SDS011;11754;42.664;23.594;2022-09-20T09:44:45;1.85;;;0.20;;
23171;SDS011;11754;42.664;23.594;2022-09-20T09:47:26;2.80;;;0.38;;
23171;SDS011;11754;42.664;23.594;2022-09-20T09:49:56;1.45;;;0.35;;
23171;SDS011;11754;42.664;23.594;2022-09-20T09:52:23;0.50;;;0.22;;
23171;SDS011;11754;42.664;23.594;2022-09-20T09:54:51;5.53;;;0.43;;
23171;SDS011;11754;42.664;23.594;2022-09-20T10:00:09;2.55;;;0.30;;
23171;SDS011;11754;42.664;23.594;2022-09-20T10:11:10;3.70;;;0.50;;
23171;SDS011;11754;42.664;23.594;2022-09-20T10:13:40;1.65;;;0.50;;
23171;SDS011;11754;42.664;23.594;2022-09-20T10:19:15;1.20;;;0.25;;
23171;SDS011;11754;42.664;23.594;2022-09-20T10:22:13;1.00;;;0.30;;
23171;SDS011;11754;42.664;23.594;2022-09-20T10:30:07;0.43;;;0.10;;
23171;SDS011;11754;42.664;23.594;2022-09-20T10:32:41;35.05;;;2.40;;
23171;SDS011;11754;42.664;23.594;2022-09-20T10:38:31;6.10;;;0.57;;
23171;SDS011;11754;42.664;23.594;2022-09-20T10:54:41;6.25;;;0.40;;
23171;SDS011;11754;42.664;23.594;2022-09-20T11:07:10;2.35;;;0.40;;
23171;SDS011;11754;42.664;23.594;2022-09-20T11:09:13;3.00;;;0.28;;
23171;SDS011;11754;42.664;23.594;2022-09-20T11:11:51;1.80;;;0.20;;
23171;SDS011;11754;42.664;23.594;2022-09-20T11:14:27;1.77;;;0.43;;
23171;SDS011;11754;42.664;23.594;2022-09-20T11:17:14;1.48;;;0.40;;
23171;SDS011;11754;42.664;23.594;2022-09-20T11:22:29;0.43;;;0.20;;
23171;SDS011;11754;42.664;23.594;2022-09-20T11:25:19;2.28;;;0.30;;
23171;SDS011;11754;42.664;23.594;2022-09-20T11:27:56;0.73;;;0.20;;
23171;SDS011;11754;42.664;23.594;2022-09-20T11:30:28;2.20;;;0.30;;
23171;SDS011;11754;42.664;23.594;2022-09-20T11:33:15;2.60;;;0.30;;
23171;SDS011;11754;42.664;23.594;2022-09-20T11:35:52;3.38;;;0.30;;
23171;SDS011;11754;42.664;23.594;2022-09-20T11:38:32;2.55;;;0.35;;
23171;SDS011;11754;42.664;23.594;2022-09-20T11:41:03;4.93;;;0.50;;
23171;SDS011;11754;42.664;23.594;2022-09-20T11:43:30;6.70;;;0.47;;
23171;SDS011;11754;42.664;23.594;2022-09-20T11:45:59;1.58;;;0.30;;
23171;SDS011;11754;42.664;23.594;2022-09-20T11:48:34;4.75;;;0.45;;
23171;SDS011;11754;42.664;23.594;2022-09-20T11:54:02;2.17;;;0.20;;
23171;SDS011;11754;42.664;23.594;2022-09-20T11:56:32;1.13;;;0.20;;
23171;SDS011;11754;42.664;23.594;2022-09-20T11:59:00;1.45;;;0.13;;
23171;SDS011;11754;42.664;23.594;2022-09-20T12:09:45;2.85;;;0.40;;
23171;SDS011;11754;42.664;23.594;2022-09-20T12:18:26;1.20;;;0.20;;
23171;SDS011;11754;42.664;23.594;2022-09-20T12:21:05;5.15;;;0.47;;
23171;SDS011;11754;42.664;23.594;2022-09-20T12:26:09;4.20;;;0.20;;
23171;SDS011;11754;42.664;23.594;2022-09-20T12:28:51;2.47;;;0.30;;
23171;SDS011;11754;42.664;23.594;2022-09-20T12:36:21;1.63;;;0.20;;
23171;SDS011;11754;42.664;23.594;2022-09-20T12:38:49;0.85;;;0.20;;
23171;SDS011;11754;42.664;23.594;2022-09-20T12:41:22;1.48;;;0.30;;
23171;SDS011;11754;42.664;23.594;2022-09-20T12:46:26;3.13;;;0.30;;
23171;SDS011;11754;42.664;23.594;2022-09-20T12:50:01;4.18;;;0.40;;
23171;SDS011;11754;42.664;23.594;2022-09-20T12:52:23;2.60;;;0.30;;
23171;SDS011;11754;42.664;23.594;2022-09-20T12:58:01;2.35;;;0.20;;
23171;SDS011;11754;42.664;23.594;2022-09-20T13:03:29;3.30;;;0.30;;
23171;SDS011;11754;42.664;23.594;2022-09-20T13:08:31;2.92;;;0.20;;
23171;SDS011;11754;42.664;23.594;2022-09-20T13:11:16;4.75;;;0.43;;
23171;SDS011;11754;42.664;23.594;2022-09-20T13:19:41;1.05;;;0.17;;
23171;SDS011;11754;42.664;23.594;2022-09-20T13:25:12;4.43;;;0.32;;
23171;SDS011;11754;42.664;23.594;2022-09-20T13:27:53;2.58;;;0.22;;
23171;SDS011;11754;42.664;23.594;2022-09-20T13:30:27;2.67;;;0.30;;
23171;SDS011;11754;42.664;23.594;2022-09-20T13:32:56;2.53;;;0.30;;
23171;SDS011;11754;42.664;23.594;2022-09-20T13:35:38;3.08;;;0.40;;
23171;SDS011;11754;42.664;23.594;2022-09-20T13:38:05;1.17;;;0.20;;
23171;SDS011;11754;42.664;23.594;2022-09-20T13:43:22;3.97;;;0.35;;
23171;SDS011;11754;42.664;23.594;2022-09-20T13:45:49;2.00;;;0.20;;
23171;SDS011;11754;42.664;23.594;2022-09-20T13:48:17;2.75;;;0.20;;
23171;SDS011;11754;42.664;23.594;2022-09-20T13:50:43;1.13;;;0.20;;
23171;SDS011;11754;42.664;23.594;2022-09-20T13:53:13;3.92;;;0.20;;
23171;SDS011;11754;42.664;23.594;2022-09-20T13:55:40;3.60;;;0.43;;
23171;SDS011;11754;42.664;23.594;2022-09-20T13:58:15;3.50;;;0.30;;
23171;SDS011;11754;42.664;23.594;2022-09-20T14:00:46;3.33;;;0.40;;
23171;SDS011;11754;42.664;23.594;2022-09-20T14:03:17;5.30;;;0.50;;
23171;SDS011;11754;42.664;23.594;2022-09-20T14:05:48;3.28;;;0.30;;
23171;SDS011;11754;42.664;23.594;2022-09-20T14:08:37;2.75;;;0.30;;
23171;SDS011;11754;42.664;23.594;2022-09-20T14:13:50;2.17;;;0.10;;
23171;SDS011;11754;42.664;23.594;2022-09-20T14:16:18;2.05;;;0.30;;
23171;SDS011;11754;42.664;23.594;2022-09-20T14:18:50;1.70;;;0.30;;
23171;SDS011;11754;42.664;23.594;2022-09-20T14:21:26;3.08;;;0.40;;
23171;SDS011;11754;42.664;23.594;2022-09-20T14:24:05;1.77;;;0.20;;
23171;SDS011;11754;42.664;23.594;2022-09-20T14:26:35;4.05;;;0.20;;
23171;SDS011;11754;42.664;23.594;2022-09-20T14:31:59;2.35;;;0.28;;
23171;SDS011;11754;42.664;23.594;2022-09-20T14:39:53;2.00;;;0.30;;
23171;SDS011;11754;42.664;23.594;2022-09-20T14:42:28;1.35;;;0.25;;
23171;SDS011;11754;42.664;23.594;2022-09-20T14:44:58;1.75;;;0.20;;
23171;SDS011;11754;42.664;23.594;2022-09-20T14:47:25;4.65;;;0.50;;
23171;SDS011;11754;42.664;23.594;2022-09-20T14:49:52;2.58;;;0.40;;
23171;SDS011;11754;42.664;23.594;2022-09-20T14:57:37;1.92;;;0.28;;
23171;SDS011;11754;42.664;23.594;2022-09-20T15:00:13;0.50;;;0.20;;
23171;SDS011;11754;42.664;23.594;2022-09-20T15:02:43;0.82;;;0.38;;
23171;SDS011;11754;42.664;23.594;2022-09-20T15:05:16;2.40;;;0.10;;
23171;SDS011;11754;42.664;23.594;2022-09-20T15:07:42;0.93;;;0.25;;
23171;SDS011;11754;42.664;23.594;2022-09-20T15:10:12;0.85;;;0.20;;
23171;SDS011;11754;42.664;23.594;2022-09-20T15:12:38;1.63;;;0.52;;
23171;SDS011;11754;42.664;23.594;2022-09-20T15:15:04;0.90;;;0.40;;
23171;SDS011;11754;42.664;23.594;2022-09-20T15:17:29;2.15;;;0.32;;
23171;SDS011;11754;42.664;23.594;2022-09-20T15:19:55;0.88;;;0.22;;
23171;SDS011;11754;42.664;23.594;2022-09-20T15:22:21;1.25;;;0.32;;
23171;SDS011;11754;42.664;23.594;2022-09-20T15:24:47;1.23;;;0.30;;
23171;SDS011;11754;42.664;23.594;2022-09-20T15:27:12;1.02;;;0.30;;
23171;SDS011;11754;42.664;23.594;2022-09-20T15:29:38;2.70;;;0.30;;
23171;SDS011;11754;42.664;23.594;2022-09-20T15:32:05;4.65;;;1.95;;
23171;SDS011;11754;42.664;23.594;2022-09-20T15:34:35;14.45;;;8.48;;
23171;SDS011;11754;42.664;23.594;2022-09-20T15:37:01;6.57;;;3.65;;
23171;SDS011;11754;42.664;23.594;2022-09-20T15:39:26;11.73;;;3.88;;
23171;SDS011;11754;42.664;23.594;2022-09-20T15:41:52;9.88;;;3.35;;
23171;SDS011;11754;42.664;23.594;2022-09-20T15:44:18;10.98;;;7.43;;
23171;SDS011;11754;42.664;23.594;2022-09-20T15:46:45;10.50;;;8.60;;
23171;SDS011;11754;42.664;23.594;2022-09-20T15:49:12;6.78;;;2.28;;
23171;SDS011;11754;42.664;23.594;2022-09-20T15:51:37;3.20;;;1.27;;
23171;SDS011;11754;42.664;23.594;2022-09-20T15:54:04;2.88;;;0.60;;
23171;SDS011;11754;42.664;23.594;2022-09-20T15:56:32;0.88;;;0.55;;
23171;SDS011;11754;42.664;23.594;2022-09-20T15:59:03;0.90;;;0.50;;
23171;SDS011;11754;42.664;23.594;2022-09-20T16:01:31;1.65;;;1.00;;
23171;SDS011;11754;42.664;23.594;2022-09-20T16:04:03;3.10;;;1.70;;
23171;SDS011;11754;42.664;23.594;2022-09-20T16:06:33;2.60;;;1.80;;
23171;SDS011;11754;42.664;23.594;2022-09-20T16:08:59;2.25;;;0.90;;
23171;SDS011;11754;42.664;23.594;2022-09-20T16:11:24;1.77;;;0.75;;
23171;SDS011;11754;42.664;23.594;2022-09-20T16:13:55;3.55;;;1.00;;
23171;SDS011;11754;42.664;23.594;2022-09-20T16:16:22;6.47;;;0.70;;
23171;SDS011;11754;42.664;23.594;2022-09-20T16:18:48;3.95;;;0.57;;
23171;SDS011;11754;42.664;23.594;2022-09-20T16:21:32;3.42;;;0.80;;
23171;SDS011;11754;42.664;23.594;2022-09-20T16:23:58;2.75;;;0.60;;
23171;SDS011;11754;42.664;23.594;2022-09-20T16:26:26;0.70;;;0.45;;
23171;SDS011;11754;42.664;23.594;2022-09-20T16:28:53;1.60;;;0.60;;
23171;SDS011;11754;42.664;23.594;2022-09-20T16:37:10;3.38;;;0.98;;
23171;SDS011;11754;42.664;23.594;2022-09-20T16:39:40;4.22;;;1.70;;
23171;SDS011;11754;42.664;23.594;2022-09-20T16:42:06;3.67;;;0.70;;
23171;SDS011;11754;42.664;23.594;2022-09-20T16:44:33;2.38;;;0.82;;
23171;SDS011;11754;42.664;23.594;2022-09-20T16:47:03;3.25;;;0.80;;
23171;SDS011;11754;42.664;23.594;2022-09-20T16:55:45;2.72;;;1.00;;
23171;SDS011;11754;42.664;23.594;2022-09-20T16:58:10;3.22;;;0.90;;
23171;SDS011;11754;42.664;23.594;2022-09-20T17:00:36;5.50;;;1.00;;
23171;SDS011;11754;42.664;23.594;2022-09-20T17:03:01;3.08;;;0.90;;
23171;SDS011;11754;42.664;23.594;2022-09-20T17:05:26;3.65;;;0.85;;
23171;SDS011;11754;42.664;23.594;2022-09-20T17:07:53;4.70;;;1.00;;
23171;SDS011;11754;42.664;23.594;2022-09-20T17:10:19;2.17;;;1.23;;
23171;SDS011;11754;42.664;23.594;2022-09-20T17:12:45;2.92;;;0.98;;
23171;SDS011;11754;42.664;23.594;2022-09-20T17:15:11;3.55;;;0.95;;
23171;SDS011;11754;42.664;23.594;2022-09-20T17:17:40;1.58;;;0.90;;
23171;SDS011;11754;42.664;23.594;2022-09-20T17:20:06;2.55;;;1.20;;
23171;SDS011;11754;42.664;23.594;2022-09-20T17:22:31;2.92;;;1.40;;
23171;SDS011;11754;42.664;23.594;2022-09-20T17:24:57;5.03;;;1.00;;
23171;SDS011;11754;42.664;23.594;2022-09-20T17:27:22;3.50;;;1.20;;
23171;SDS011;11754;42.664;23.594;2022-09-20T17:29:48;2.97;;;1.15;;
23171;SDS011;11754;42.664;23.594;2022-09-20T17:32:14;3.38;;;1.63;;
23171;SDS011;11754;42.664;23.594;2022-09-20T17:34:39;3.38;;;1.42;;
23171;SDS011;11754;42.664;23.594;2022-09-20T17:37:05;3.88;;;1.65;;
23171;SDS011;11754;42.664;23.594;2022-09-20T17:39:30;13.43;;;2.08;;
23171;SDS011;11754;42.664;23.594;2022-09-20T17:41:56;5.47;;;1.90;;
23171;SDS011;11754;42.664;23.594;2022-09-20T17:44:21;7.03;;;1.73;;
23171;SDS011;11754;42.664;23.594;2022-09-20T17:46:48;22.40;;;4.13;;
23171;SDS011;11754;42.664;23.594;2022-09-20T17:49:15;21.90;;;4.97;;
23171;SDS011;11754;42.664;23.594;2022-09-20T17:51:43;20.30;;;4.90;;
23171;SDS011;11754;42.664;23.594;2022-09-20T17:54:10;16.67;;;3.50;;
23171;SDS011;11754;42.664;23.594;2022-09-20T17:56:42;12.27;;;2.88;;
23171;SDS011;11754;42.664;23.594;2022-09-20T17:59:10;5.88;;;2.70;;
23171;SDS011;11754;42.664;23.594;2022-09-20T18:01:37;6.72;;;2.35;;
23171;SDS011;11754;42.664;23.594;2022-09-20T18:04:03;7.50;;;2.20;;
23171;SDS011;11754;42.664;23.594;2022-09-20T18:06:34;4.13;;;2.08;;
23171;SDS011;11754;42.664;23.594;2022-09-20T18:09:07;5.70;;;2.40;;
23171;SDS011;11754;42.664;23.594;2022-09-20T18:11:35;7.22;;;2.60;;
23171;SDS011;11754;42.664;23.594;2022-09-20T18:14:06;4.40;;;2.30;;
23171;SDS011;11754;42.664;23.594;2022-09-20T18:16:37;3.30;;;2.30;;
23171;SDS011;11754;42.664;23.594;2022-09-20T18:19:06;6.20;;;2.60;;
23171;SDS011;11754;42.664;23.594;2022-09-20T18:21:33;5.68;;;2.80;;
23171;SDS011;11754;42.664;23.594;2022-09-20T18:24:00;9.90;;;3.13;;
23171;SDS011;11754;42.664;23.594;2022-09-20T18:26:29;6.07;;;2.95;;
23171;SDS011;11754;42.664;23.594;2022-09-20T18:28:57;10.00;;;2.80;;
23171;SDS011;11754;42.664;23.594;2022-09-20T18:34:14;7.15;;;2.97;;
23171;SDS011;11754;42.664;23.594;2022-09-20T18:36:43;11.38;;;3.88;;
23171;SDS011;11754;42.664;23.594;2022-09-20T18:39:10;8.18;;;3.40;;
23171;SDS011;11754;42.664;23.594;2022-09-20T18:41:37;5.55;;;3.13;;
23171;SDS011;11754;42.664;23.594;2022-09-20T18:44:05;11.45;;;3.40;;
23171;SDS011;11754;42.664;23.594;2022-09-20T18:46:32;6.97;;;3.30;;
23171;SDS011;11754;42.664;23.594;2022-09-20T18:48:58;8.30;;;2.90;;
23171;SDS011;11754;42.664;23.594;2022-09-20T18:51:27;6.85;;;3.15;;
23171;SDS011;11754;42.664;23.594;2022-09-20T18:53:53;9.43;;;3.47;;
23171;SDS011;11754;42.664;23.594;2022-09-20T18:56:23;16.85;;;8.10;;
23171;SDS011;11754;42.664;23.594;2022-09-20T18:58:56;13.27;;;7.03;;
23171;SDS011;11754;42.664;23.594;2022-09-20T19:06:16;13.23;;;7.95;;
23171;SDS011;11754;42.664;23.594;2022-09-20T19:08:46;11.38;;;5.90;;
23171;SDS011;11754;42.664;23.594;2022-09-20T19:11:26;9.82;;;5.30;;
23171;SDS011;11754;42.664;23.594;2022-09-20T19:14:02;8.88;;;4.65;;
23171;SDS011;11754;42.664;23.594;2022-09-20T19:16:35;9.77;;;5.22;;
23171;SDS011;11754;42.664;23.594;2022-09-20T19:24:48;12.82;;;5.35;;
23171;SDS011;11754;42.664;23.594;2022-09-20T19:27:36;12.48;;;4.57;;
23171;SDS011;11754;42.664;23.594;2022-09-20T19:30:02;11.60;;;4.50;;
23171;SDS011;11754;42.664;23.594;2022-09-20T19:32:28;12.77;;;4.95;;
23171;SDS011;11754;42.664;23.594;2022-09-20T19:34:54;14.02;;;5.60;;
23171;SDS011;11754;42.664;23.594;2022-09-20T19:46:09;37.25;;;23.52;;
23171;SDS011;11754;42.664;23.594;2022-09-20T19:48:47;33.78;;;22.63;;
23171;SDS011;11754;42.664;23.594;2022-09-20T19:51:26;29.33;;;17.58;;
23171;SDS011;11754;42.664;23.594;2022-09-20T19:53:56;16.08;;;10.45;;
23171;SDS011;11754;42.664;23.594;2022-09-20T19:56:22;16.80;;;9.75;;
23171;SDS011;11754;42.664;23.594;2022-09-20T19:58:49;15.80;;;9.80;;
23171;SDS011;11754;42.664;23.594;2022-09-20T20:01:20;17.50;;;10.40;;
23171;SDS011;11754;42.664;23.594;2022-09-20T20:03:52;19.75;;;10.57;;
23171;SDS011;11754;42.664;23.594;2022-09-20T20:08:56;22.05;;;11.93;;
23171;SDS011;11754;42.664;23.594;2022-09-20T20:14:17;21.73;;;9.85;;
23171;SDS011;11754;42.664;23.594;2022-09-20T20:19:46;24.00;;;12.25;;
23171;SDS011;11754;42.664;23.594;2022-09-20T20:25:54;12.05;;;6.32;;
23171;SDS011;11754;42.664;23.594;2022-09-20T20:28:01;10.35;;;5.80;;
23171;SDS011;11754;42.664;23.594;2022-09-20T20:30:26;12.90;;;5.60;;
23171;SDS011;11754;42.664;23.594;2022-09-20T20:32:55;6.32;;;3.85;;
23171;SDS011;11754;42.664;23.594;2022-09-20T20:37:50;7.35;;;4.68;;
23171;SDS011;11754;42.664;23.594;2022-09-20T20:40:16;12.38;;;6.43;;
23171;SDS011;11754;42.664;23.594;2022-09-20T20:42:41;10.32;;;5.60;;
23171;SDS011;11754;42.664;23.594;2022-09-20T20:45:07;10.23;;;5.30;;
23171;SDS011;11754;42.664;23.594;2022-09-20T20:47:33;9.32;;;4.55;;
23171;SDS011;11754;42.664;23.594;2022-09-20T20:49:59;9.38;;;4.47;;
23171;SDS011;11754;42.664;23.594;2022-09-20T20:52:24;10.77;;;4.10;;
23171;SDS011;11754;42.664;23.594;2022-09-20T20:54:50;7.60;;;4.18;;